Sunny Hills, Florida
Current Conditions -  °F | °C
As of 4:53 AM on Saturday 25 Oct 2014 (Local Time) from KECP Reporting Station
Clear Clear  
Wind Chill: 50°   Ceiling: Unl
Heat Index: 50°   Visibility: 10mi
Dew Point: 45°   Wind: 6mph
Humidity: 83%   Direction: 320°NW
Pressure: 30.02"   Gusts: NA
Location:  30.604°N, 85.5678°W
Report Text: KECP 250953Z AUTO 32005KT 10SM CLR 10/07 A3002 RMK AO2 SLP176 T01000072 $
Loading
Personal Weather Stations






























Interactive Weather Map
Tropical Storm Tracking
New forecast layout! Learn more

10-Day Weather Forecast

Advertisements
Track Severe Weather on mobile